createdAt,value
2022-11-30T00:01:18.629Z,38.10
2022-11-30T00:03:46.260Z,39.93
2022-11-30T00:06:15.947Z,38.97
2022-11-30T00:08:42.922Z,38.83
2022-11-30T00:11:09.832Z,39.93
2022-11-30T00:13:36.546Z,39.20
2022-11-30T00:16:03.584Z,38.80
2022-11-30T00:18:30.411Z,38.27
2022-11-30T00:21:01.277Z,38.47
2022-11-30T00:23:35.816Z,37.33
2022-11-30T00:26:04.752Z,37.07
2022-11-30T00:28:32.876Z,38.13
2022-11-30T00:31:08.777Z,37.47
2022-11-30T00:33:37.688Z,37.93
2022-11-30T00:36:11.088Z,37.83
2022-11-30T00:38:37.756Z,38.03
2022-11-30T00:41:04.654Z,38.97
2022-11-30T00:43:31.809Z,38.90
2022-11-30T00:45:58.639Z,39.10
2022-11-30T00:48:25.773Z,37.80
2022-11-30T00:50:52.869Z,37.13
2022-11-30T00:53:20.791Z,39.87
2022-11-30T00:55:48.366Z,41.40
2022-11-30T00:58:15.828Z,39.63
2022-11-30T01:00:43.105Z,37.57
2022-11-30T01:03:10.451Z,37.80
2022-11-30T01:05:37.426Z,36.07
2022-11-30T01:08:06.492Z,39.57
2022-11-30T01:10:34.701Z,40.17
2022-11-30T01:13:01.956Z,39.00
2022-11-30T01:15:30.385Z,38.47
2022-11-30T01:17:59.954Z,37.47
2022-11-30T01:20:26.703Z,36.23
2022-11-30T01:22:54.572Z,37.67
2022-11-30T01:25:21.336Z,39.40
2022-11-30T01:27:52.022Z,38.13
2022-11-30T01:30:18.867Z,38.63
2022-11-30T01:32:45.602Z,38.43
2022-11-30T01:35:12.506Z,37.23
2022-11-30T01:37:39.297Z,40.00
2022-11-30T01:40:07.053Z,37.13
2022-11-30T01:42:34.000Z,37.90
2022-11-30T01:45:02.391Z,38.17
2022-11-30T01:47:33.228Z,36.00
2022-11-30T01:50:23.287Z,38.23
2022-11-30T01:52:56.282Z,37.13
2022-11-30T01:55:37.336Z,36.53
2022-11-30T01:58:08.081Z,38.37
2022-11-30T02:00:35.336Z,37.13
2022-11-30T02:03:20.023Z,38.93
2022-11-30T02:05:46.997Z,40.53
2022-11-30T02:08:14.169Z,40.17
2022-11-30T02:10:44.410Z,39.33
2022-11-30T02:13:47.774Z,38.20
2022-11-30T02:16:27.099Z,38.97
2022-11-30T02:19:11.537Z,40.27
2022-11-30T02:21:52.892Z,37.13
2022-11-30T02:24:40.845Z,40.03
2022-11-30T02:27:43.380Z,40.57
2022-11-30T02:30:14.660Z,39.70
2022-11-30T02:33:12.125Z,42.13
2022-11-30T02:35:54.318Z,42.73
2022-11-30T02:38:23.975Z,41.87
2022-11-30T02:40:50.759Z,44.07
2022-11-30T02:43:20.005Z,43.93
2022-11-30T02:45:54.043Z,40.87
2022-11-30T02:48:28.442Z,41.57
2022-11-30T02:51:00.673Z,43.13
2022-11-30T02:53:27.574Z,40.03
2022-11-30T02:55:54.866Z,42.17
2022-11-30T02:58:22.223Z,41.83
2022-11-30T03:00:49.870Z,41.17
2022-11-30T03:03:16.559Z,42.07
2022-11-30T03:05:43.353Z,42.40
2022-11-30T03:08:10.472Z,45.37
2022-11-30T03:10:37.133Z,45.47
2022-11-30T03:13:03.769Z,44.83
2022-11-30T03:15:30.576Z,44.80
2022-11-30T03:18:01.032Z,45.40
2022-11-30T03:20:27.685Z,46.37
2022-11-30T03:22:54.333Z,45.67
2022-11-30T03:25:21.236Z,46.17
2022-11-30T03:27:47.885Z,44.97
2022-11-30T03:30:14.637Z,46.07
2022-11-30T03:32:41.293Z,44.57
2022-11-30T03:35:08.357Z,45.63
2022-11-30T03:37:35.077Z,46.33
2022-11-30T03:40:05.286Z,47.27
2022-11-30T03:42:31.961Z,47.73
2022-11-30T03:44:58.609Z,45.80
2022-11-30T03:47:25.277Z,46.20
2022-11-30T03:49:51.965Z,46.70
2022-11-30T03:52:18.629Z,46.27
2022-11-30T03:54:45.728Z,45.67
2022-11-30T03:57:12.637Z,45.30
2022-11-30T03:59:39.341Z,44.67
2022-11-30T04:02:06.400Z,46.70
2022-11-30T04:04:33.206Z,48.27
2022-11-30T04:06:59.874Z,45.43
2022-11-30T04:09:26.564Z,45.13
2022-11-30T04:11:53.330Z,45.87
2022-11-30T04:14:19.981Z,43.23
2022-11-30T04:16:46.653Z,45.77
2022-11-30T04:19:13.316Z,44.53
2022-11-30T04:21:39.990Z,44.10
2022-11-30T04:24:07.369Z,43.40
2022-11-30T04:26:34.032Z,40.97
2022-11-30T04:29:04.339Z,41.13
2022-11-30T04:31:31.430Z,39.50
2022-11-30T04:33:58.186Z,41.00
2022-11-30T04:36:25.016Z,41.87
2022-11-30T04:38:51.737Z,40.60
2022-11-30T04:41:18.476Z,42.73
2022-11-30T04:43:45.255Z,44.27
2022-11-30T04:46:12.295Z,41.03
2022-11-30T04:48:39.009Z,42.27
2022-11-30T04:51:07.875Z,43.67
2022-11-30T04:53:36.139Z,44.87
2022-11-30T04:56:10.417Z,46.10
2022-11-30T04:58:38.912Z,44.33
2022-11-30T05:01:06.302Z,41.93
2022-11-30T05:03:33.084Z,43.10
2022-11-30T05:05:59.745Z,40.80
2022-11-30T05:08:26.426Z,41.53
2022-11-30T05:10:54.277Z,41.23
2022-11-30T05:13:22.183Z,40.77
2022-11-30T05:15:48.940Z,39.87
2022-11-30T05:18:18.454Z,40.13
2022-11-30T05:20:49.823Z,38.20
2022-11-30T05:23:17.483Z,37.80
2022-11-30T05:25:44.667Z,38.47
2022-11-30T05:28:12.168Z,38.77
2022-11-30T05:30:43.149Z,38.27
2022-11-30T05:33:10.068Z,39.40
2022-11-30T05:35:37.131Z,37.23
2022-11-30T05:38:04.421Z,38.37
2022-11-30T05:40:32.655Z,40.00
2022-11-30T05:43:01.142Z,38.93
2022-11-30T05:45:28.617Z,36.50
2022-11-30T05:47:55.365Z,36.50
2022-11-30T05:50:22.239Z,35.57
2022-11-30T05:52:48.947Z,33.70
2022-11-30T05:55:15.686Z,35.57
2022-11-30T05:57:42.412Z,34.53
2022-11-30T06:00:09.999Z,34.03
2022-11-30T06:02:37.032Z,36.07
2022-11-30T06:05:03.976Z,33.77
2022-11-30T06:07:30.811Z,34.10
2022-11-30T06:09:57.540Z,33.77
2022-11-30T06:12:24.208Z,33.20
2022-11-30T06:14:51.140Z,31.67
2022-11-30T06:17:17.870Z,34.77
2022-11-30T06:19:44.622Z,36.90
2022-11-30T06:22:11.281Z,36.50
2022-11-30T06:24:37.970Z,36.33
2022-11-30T06:27:04.694Z,36.93
2022-11-30T06:29:31.430Z,36.50
2022-11-30T06:31:58.152Z,36.17
2022-11-30T06:34:24.910Z,36.23
2022-11-30T06:36:51.621Z,38.13
2022-11-30T06:39:31.401Z,36.67
2022-11-30T06:42:05.348Z,35.17
2022-11-30T06:44:32.036Z,36.00
2022-11-30T06:46:58.738Z,35.93
2022-11-30T06:49:25.448Z,34.53
2022-11-30T06:51:52.169Z,35.27
2022-11-30T06:54:18.815Z,36.07
2022-11-30T06:56:45.489Z,35.47
2022-11-30T06:59:12.229Z,36.83
2022-11-30T07:01:38.904Z,36.97
2022-11-30T07:04:05.648Z,37.97
2022-11-30T07:06:32.317Z,37.37
2022-11-30T07:08:59.009Z,37.83
2022-11-30T07:11:25.758Z,37.73
2022-11-30T07:13:52.440Z,38.80
2022-11-30T07:16:19.206Z,39.97
2022-11-30T07:18:45.923Z,39.77
2022-11-30T07:21:12.766Z,38.73
2022-11-30T07:23:58.268Z,39.50
2022-11-30T07:26:25.917Z,37.97
2022-11-30T07:28:58.322Z,37.23
2022-11-30T07:31:30.543Z,36.37
2022-11-30T07:33:58.723Z,35.60
2022-11-30T07:36:26.724Z,35.60
2022-11-30T07:38:53.437Z,36.77
2022-11-30T07:41:20.106Z,35.07
2022-11-30T07:43:46.816Z,36.17
2022-11-30T07:46:15.453Z,34.50
2022-11-30T07:48:43.308Z,33.90
2022-11-30T07:51:18.949Z,33.63
2022-11-30T07:53:45.912Z,33.10
2022-11-30T07:56:18.352Z,34.60
2022-11-30T07:58:45.733Z,36.43
2022-11-30T08:01:15.564Z,34.97
2022-11-30T08:03:42.600Z,35.07
2022-11-30T08:06:20.133Z,33.57
2022-11-30T08:08:48.981Z,35.07
2022-11-30T08:11:18.397Z,32.70
2022-11-30T08:13:45.377Z,35.53
2022-11-30T08:16:14.896Z,35.93
2022-11-30T08:18:42.287Z,36.27
2022-11-30T08:21:11.329Z,35.70
2022-11-30T08:23:58.404Z,36.17
2022-11-30T08:26:30.934Z,33.63
2022-11-30T08:28:59.293Z,35.17
2022-11-30T08:31:32.685Z,34.47
2022-11-30T08:34:03.793Z,32.50
2022-11-30T08:36:31.083Z,35.23
2022-11-30T08:38:59.612Z,36.50
2022-11-30T08:41:27.033Z,36.37
2022-11-30T08:43:53.789Z,36.90
2022-11-30T08:49:26.311Z,39.93
2022-11-30T08:54:46.265Z,37.00
2022-11-30T08:57:17.885Z,37.93
2022-11-30T08:59:44.717Z,34.50
2022-11-30T09:02:13.971Z,35.83
2022-11-30T09:04:40.947Z,35.73
2022-11-30T09:07:09.505Z,34.23
2022-11-30T09:09:36.960Z,34.83
2022-11-30T09:12:03.978Z,35.33
2022-11-30T09:14:30.848Z,37.40
2022-11-30T09:16:57.507Z,33.17
2022-11-30T09:19:25.398Z,36.17
2022-11-30T09:21:52.699Z,37.67
2022-11-30T09:24:20.868Z,37.63
2022-11-30T09:26:47.820Z,36.33
2022-11-30T09:29:14.736Z,35.23
2022-11-30T09:31:41.412Z,37.10
2022-11-30T09:34:11.365Z,36.23
2022-11-30T09:36:38.126Z,35.97
2022-11-30T09:39:04.861Z,35.97
2022-11-30T09:41:34.449Z,35.00
2022-11-30T09:44:41.293Z,35.83
2022-11-30T09:47:07.937Z,34.13
2022-11-30T09:49:54.497Z,35.87
2022-11-30T09:52:33.740Z,36.50
2022-11-30T09:55:06.619Z,36.40
2022-11-30T09:58:00.539Z,33.57
2022-11-30T10:00:27.643Z,32.37
2022-11-30T10:02:59.451Z,32.27
2022-11-30T10:06:08.584Z,33.33
2022-11-30T10:08:50.631Z,34.13
2022-11-30T10:11:24.503Z,34.87
2022-11-30T10:14:02.912Z,32.47
2022-11-30T10:16:49.776Z,34.37
2022-11-30T10:19:26.159Z,34.23
2022-11-30T10:22:07.785Z,33.93
2022-11-30T10:24:53.498Z,32.60
2022-11-30T10:27:44.836Z,34.07
2022-11-30T10:30:19.066Z,35.70
2022-11-30T10:32:53.010Z,36.03
2022-11-30T10:35:43.320Z,35.77
2022-11-30T10:38:15.574Z,35.27
2022-11-30T10:41:00.476Z,36.00
2022-11-30T10:43:38.199Z,35.50
2022-11-30T10:46:05.693Z,34.13
2022-11-30T10:48:32.464Z,34.70
2022-11-30T10:51:04.623Z,33.33
2022-11-30T10:53:32.882Z,34.97
2022-11-30T10:56:08.352Z,35.30
2022-11-30T10:58:41.271Z,33.63
2022-11-30T11:01:11.182Z,33.37
2022-11-30T11:03:38.415Z,35.13
2022-11-30T11:06:22.166Z,34.80
2022-11-30T11:08:49.705Z,31.23
2022-11-30T11:11:36.635Z,32.97
2022-11-30T11:14:16.786Z,35.47
2022-11-30T11:17:00.227Z,31.33
2022-11-30T11:19:35.960Z,30.57
2022-11-30T11:22:21.185Z,35.57
2022-11-30T11:24:49.956Z,33.57
2022-11-30T11:27:33.653Z,33.60
2022-11-30T11:30:16.680Z,33.37
2022-11-30T11:33:02.416Z,32.90
2022-11-30T11:36:06.461Z,33.13
2022-11-30T11:38:53.462Z,30.43
2022-11-30T11:41:31.378Z,30.40
2022-11-30T11:43:59.863Z,31.53
2022-11-30T11:46:27.432Z,33.30
2022-11-30T11:49:18.297Z,32.50
2022-11-30T11:51:46.594Z,33.10
2022-11-30T11:54:45.117Z,33.30
2022-11-30T11:57:15.272Z,33.00
2022-11-30T11:59:50.775Z,33.23
2022-11-30T12:02:31.274Z,32.47
2022-11-30T12:05:05.430Z,32.73
2022-11-30T12:07:37.990Z,32.90
2022-11-30T12:10:51.766Z,35.60
2022-11-30T12:13:33.217Z,33.93
2022-11-30T12:16:11.878Z,33.50
2022-11-30T12:19:05.143Z,34.53
2022-11-30T12:21:57.756Z,31.63
2022-11-30T12:24:46.058Z,31.10
2022-11-30T12:27:21.650Z,31.53
2022-11-30T12:30:13.056Z,32.37
2022-11-30T12:32:58.568Z,33.03
2022-11-30T12:35:55.174Z,33.47
2022-11-30T12:38:46.710Z,32.43
2022-11-30T12:41:50.722Z,30.17
2022-11-30T12:44:29.341Z,32.03
2022-11-30T12:47:20.378Z,31.27
2022-11-30T12:50:11.532Z,30.43
2022-11-30T12:52:54.401Z,29.43
2022-11-30T12:56:03.415Z,28.93
2022-11-30T12:58:50.036Z,30.93
2022-11-30T13:01:39.284Z,33.37
2022-11-30T13:04:30.681Z,31.77
2022-11-30T13:07:22.854Z,29.67
2022-11-30T13:09:56.831Z,31.07
2022-11-30T13:12:36.372Z,32.57
2022-11-30T13:15:19.193Z,33.67
2022-11-30T13:17:47.462Z,31.60
2022-11-30T13:20:32.690Z,30.90
2022-11-30T13:23:13.907Z,32.43
2022-11-30T13:26:07.973Z,29.43
2022-11-30T13:28:41.348Z,31.07
2022-11-30T13:31:25.757Z,30.13
2022-11-30T13:33:55.496Z,30.07
2022-11-30T13:36:44.903Z,29.90
2022-11-30T13:39:14.520Z,30.30
2022-11-30T13:41:50.419Z,30.37
2022-11-30T13:44:38.725Z,31.50
2022-11-30T13:47:16.956Z,31.07
2022-11-30T13:49:44.397Z,31.63
2022-11-30T13:52:24.159Z,30.63
2022-11-30T13:54:54.578Z,30.57
2022-11-30T13:57:27.976Z,30.30
2022-11-30T13:59:55.351Z,30.43
2022-11-30T14:05:18.401Z,31.60
2022-11-30T14:08:05.380Z,30.87
2022-11-30T14:10:36.808Z,31.40
2022-11-30T14:13:14.156Z,29.83
2022-11-30T14:15:41.861Z,31.03
2022-11-30T14:18:08.536Z,29.27
2022-11-30T14:21:01.788Z,28.50
2022-11-30T14:23:46.930Z,29.50
2022-11-30T14:26:16.196Z,28.00
2022-11-30T14:28:57.369Z,27.77
2022-11-30T14:31:33.097Z,29.00
2022-11-30T14:34:12.264Z,29.30
2022-11-30T14:36:44.910Z,30.40
2022-11-30T14:39:33.179Z,29.80
2022-11-30T14:42:00.978Z,29.53
2022-11-30T14:44:28.213Z,28.80
2022-11-30T14:46:55.685Z,30.23
2022-11-30T14:49:24.292Z,29.23
2022-11-30T14:52:02.739Z,28.70
2022-11-30T14:54:42.621Z,26.37
2022-11-30T14:57:18.993Z,30.07
2022-11-30T14:59:51.708Z,31.20
2022-11-30T15:02:38.957Z,27.83
2022-11-30T15:05:08.292Z,31.07
2022-11-30T15:07:36.350Z,30.77
2022-11-30T15:10:07.472Z,32.07
2022-11-30T15:12:35.402Z,29.83
2022-11-30T15:15:17.395Z,28.67
2022-11-30T15:17:52.057Z,30.23
2022-11-30T15:20:28.341Z,28.50
2022-11-30T15:22:58.055Z,27.67
2022-11-30T15:25:30.303Z,27.17
2022-11-30T15:27:58.512Z,28.00
2022-11-30T15:30:25.405Z,28.33
2022-11-30T15:32:53.162Z,29.23
2022-11-30T15:35:34.290Z,28.37
2022-11-30T15:38:09.073Z,29.03
2022-11-30T15:40:36.278Z,28.97
2022-11-30T15:43:03.158Z,29.53
2022-11-30T15:45:36.232Z,30.77
2022-11-30T15:48:23.756Z,29.73
2022-11-30T15:50:50.586Z,31.20
2022-11-30T15:53:34.924Z,31.53
2022-11-30T15:56:09.133Z,30.17
2022-11-30T15:58:58.821Z,33.27
2022-11-30T16:01:26.527Z,31.20
2022-11-30T16:03:56.110Z,32.63
2022-11-30T16:06:25.225Z,32.50
2022-11-30T16:08:52.809Z,30.90
2022-11-30T16:11:20.261Z,32.53
2022-11-30T16:13:47.752Z,30.50
2022-11-30T16:16:19.824Z,33.83
2022-11-30T16:18:47.243Z,31.33
2022-11-30T16:21:17.078Z,33.20
2022-11-30T16:23:43.881Z,30.73
2022-11-30T16:26:23.069Z,33.77
2022-11-30T16:28:59.214Z,31.80
2022-11-30T16:31:26.028Z,33.03
2022-11-30T16:33:52.769Z,32.37
2022-11-30T16:36:21.151Z,33.13
2022-11-30T16:38:52.925Z,32.70
2022-11-30T16:41:25.053Z,31.37
2022-11-30T16:43:56.414Z,33.60
2022-11-30T16:46:25.636Z,32.83
2022-11-30T16:48:53.428Z,32.23
2022-11-30T16:51:27.494Z,33.60
2022-11-30T16:53:54.966Z,31.10
2022-11-30T16:56:21.762Z,30.20
2022-11-30T16:58:48.540Z,30.20
2022-11-30T17:01:35.748Z,30.47
2022-11-30T17:04:12.054Z,31.97
2022-11-30T17:06:38.997Z,31.47
2022-11-30T17:09:06.006Z,31.00
2022-11-30T17:11:35.010Z,32.23
2022-11-30T17:14:01.876Z,32.37
2022-11-30T17:16:28.611Z,35.30
2022-11-30T17:18:55.399Z,33.07
2022-11-30T17:21:30.968Z,34.20
2022-11-30T17:23:58.521Z,38.37
2022-11-30T17:26:26.162Z,32.03
2022-11-30T17:28:53.163Z,32.47
2022-11-30T17:31:20.472Z,34.03
2022-11-30T17:33:48.587Z,34.20
2022-11-30T17:36:16.760Z,32.83
2022-11-30T17:38:44.196Z,36.47
2022-11-30T17:41:19.278Z,33.83
2022-11-30T17:43:47.627Z,34.50
2022-11-30T17:46:16.277Z,35.33
2022-11-30T17:48:44.207Z,35.80
2022-11-30T17:51:11.963Z,34.57
2022-11-30T17:53:39.970Z,36.13
2022-11-30T17:56:12.432Z,33.83
2022-11-30T17:58:43.908Z,36.37
2022-11-30T18:01:25.275Z,38.33
2022-11-30T18:03:53.036Z,39.87
2022-11-30T18:06:20.293Z,37.43
2022-11-30T18:08:47.000Z,35.50
2022-11-30T18:11:21.165Z,35.27
2022-11-30T18:13:48.748Z,34.40
2022-11-30T18:16:18.278Z,33.33
2022-11-30T18:18:48.183Z,35.17
2022-11-30T18:21:20.344Z,34.87
2022-11-30T18:23:47.963Z,37.87
2022-11-30T18:26:17.922Z,41.67
2022-11-30T18:28:45.273Z,37.63
2022-11-30T18:31:12.325Z,34.30
2022-11-30T18:33:39.160Z,36.40
2022-11-30T18:36:07.695Z,35.77
2022-11-30T18:38:38.330Z,36.00
2022-11-30T18:41:06.453Z,37.13
2022-11-30T18:43:35.059Z,37.10
2022-11-30T18:46:07.145Z,34.60
2022-11-30T18:48:34.417Z,33.00
2022-11-30T18:51:13.923Z,31.80
2022-11-30T18:53:41.432Z,33.30
2022-11-30T18:56:10.273Z,31.93
2022-11-30T18:58:37.025Z,33.47
2022-11-30T19:01:09.266Z,34.90
2022-11-30T19:03:37.876Z,32.60
2022-11-30T19:06:06.411Z,35.97
2022-11-30T19:08:33.569Z,36.30
2022-11-30T19:11:05.729Z,37.43
2022-11-30T19:13:33.279Z,31.60
2022-11-30T19:16:05.913Z,37.27
2022-11-30T19:18:33.421Z,39.27
2022-11-30T19:21:00.276Z,38.47
2022-11-30T19:23:26.993Z,36.43
2022-11-30T19:25:58.721Z,35.07
2022-11-30T19:28:25.481Z,37.37
2022-11-30T19:30:52.250Z,37.77
2022-11-30T19:33:19.007Z,37.80
2022-11-30T19:35:45.739Z,39.90
2022-11-30T19:38:12.516Z,39.03
2022-11-30T19:40:39.307Z,38.77
2022-11-30T19:43:06.128Z,37.07
2022-11-30T19:45:34.697Z,40.10
2022-11-30T19:48:01.504Z,36.90
2022-11-30T19:50:29.018Z,38.57
2022-11-30T19:52:55.730Z,39.80
2022-11-30T19:55:22.487Z,41.53
2022-11-30T19:57:49.233Z,38.73
2022-11-30T20:00:16.371Z,39.63
2022-11-30T20:02:43.086Z,36.97
2022-11-30T20:05:09.898Z,38.13
2022-11-30T20:07:36.779Z,38.60
2022-11-30T20:10:03.901Z,37.97
2022-11-30T20:12:30.714Z,43.13
2022-11-30T20:14:57.630Z,40.67
2022-11-30T20:17:24.321Z,46.60
2022-11-30T20:19:51.307Z,43.33
2022-11-30T20:22:18.634Z,41.63
2022-11-30T20:24:51.151Z,40.83
2022-11-30T20:27:23.541Z,40.73
2022-11-30T20:29:52.724Z,39.47
2022-11-30T20:32:22.715Z,43.13
2022-11-30T20:34:52.538Z,42.63
2022-11-30T20:37:19.289Z,40.40
2022-11-30T20:39:46.453Z,42.03
2022-11-30T20:42:13.475Z,41.63
2022-11-30T20:44:40.128Z,43.17
2022-11-30T20:47:06.907Z,45.40
2022-11-30T20:49:33.734Z,44.70
2022-11-30T20:52:00.406Z,41.47
2022-11-30T20:54:29.840Z,41.37
2022-11-30T20:56:58.785Z,45.77
2022-11-30T20:59:26.748Z,40.87
2022-11-30T21:01:55.551Z,40.87
2022-11-30T21:04:24.779Z,43.70
2022-11-30T21:06:54.870Z,40.17
2022-11-30T21:09:24.522Z,41.47
2022-11-30T21:11:51.168Z,42.43
2022-11-30T21:14:18.064Z,41.00
2022-11-30T21:16:47.831Z,38.10
2022-11-30T21:19:15.386Z,37.97
2022-11-30T21:21:42.180Z,41.87
2022-11-30T21:24:11.156Z,37.60
2022-11-30T21:26:39.974Z,36.37
2022-11-30T21:29:16.000Z,36.83
2022-11-30T21:31:44.739Z,37.93
2022-11-30T21:34:11.602Z,36.90
2022-11-30T21:36:38.733Z,39.47
2022-11-30T21:39:09.225Z,37.03
2022-11-30T21:41:38.285Z,35.33
2022-11-30T21:44:06.236Z,37.97
2022-11-30T21:46:33.794Z,37.10
2022-11-30T21:49:01.003Z,38.00
2022-11-30T21:51:29.688Z,35.73
2022-11-30T21:53:58.585Z,38.73
2022-11-30T21:56:27.968Z,37.60
2022-11-30T21:58:55.450Z,36.63
2022-11-30T22:01:30.358Z,41.63
2022-11-30T22:04:01.878Z,39.23
2022-11-30T22:06:30.474Z,38.00
2022-11-30T22:09:03.391Z,40.40
2022-11-30T22:11:31.312Z,32.37
2022-11-30T22:13:58.089Z,32.77
2022-11-30T22:16:29.910Z,32.73
2022-11-30T22:19:01.238Z,32.27
2022-11-30T22:21:29.942Z,30.93
2022-11-30T22:24:05.113Z,31.40
2022-11-30T22:26:43.182Z,30.47
2022-11-30T22:29:14.670Z,31.00
2022-11-30T22:31:43.473Z,30.37
2022-11-30T22:34:10.780Z,30.30
2022-11-30T22:36:39.721Z,29.87
2022-11-30T22:39:20.537Z,29.80
2022-11-30T22:41:54.211Z,28.70
2022-11-30T22:44:22.237Z,28.40
2022-11-30T22:46:49.028Z,28.87
2022-11-30T22:49:21.301Z,27.23
2022-11-30T22:51:49.068Z,28.63
2022-11-30T22:54:15.825Z,28.63
2022-11-30T22:56:42.714Z,29.30
2022-11-30T22:59:13.499Z,29.37
2022-11-30T23:01:44.634Z,28.23
2022-11-30T23:04:14.387Z,27.87
2022-11-30T23:06:42.771Z,29.00
2022-11-30T23:09:13.730Z,28.13
2022-11-30T23:11:41.293Z,28.67
2022-11-30T23:14:08.978Z,26.60
2022-11-30T23:16:37.081Z,25.70
2022-11-30T23:19:05.292Z,27.53
2022-11-30T23:21:41.657Z,29.03
2022-11-30T23:24:12.170Z,27.27
2022-11-30T23:26:39.318Z,28.50
2022-11-30T23:29:10.079Z,27.20
2022-11-30T23:31:39.253Z,27.60
2022-11-30T23:34:08.969Z,28.27
2022-11-30T23:36:36.510Z,26.73
2022-11-30T23:39:15.614Z,27.87
2022-11-30T23:41:43.168Z,27.73
2022-11-30T23:44:10.609Z,27.93
2022-11-30T23:46:37.855Z,27.10
2022-11-30T23:49:04.905Z,27.27
2022-11-30T23:51:31.820Z,28.13
2022-11-30T23:53:58.712Z,25.43
2022-11-30T23:56:25.616Z,26.97
2022-11-30T23:58:52.756Z,27.80
